sensor_id;sensor_type;location;lat;lon;timestamp;temperature;humidity
56478;DHT22;42382;53.210;5.772;2024-02-23T00:00:50;5.80;91.60
56478;DHT22;42382;53.210;5.772;2024-02-23T00:03:16;5.70;91.50
56478;DHT22;42382;53.210;5.772;2024-02-23T00:05:41;5.70;91.30
56478;DHT22;42382;53.210;5.772;2024-02-23T00:08:10;5.70;91.50
56478;DHT22;42382;53.210;5.772;2024-02-23T00:10:35;5.80;91.00
56478;DHT22;42382;53.210;5.772;2024-02-23T00:13:01;5.80;91.10
56478;DHT22;42382;53.210;5.772;2024-02-23T00:15:27;5.90;90.80
56478;DHT22;42382;53.210;5.772;2024-02-23T00:17:52;5.90;90.50
56478;DHT22;42382;53.210;5.772;2024-02-23T00:20:18;5.80;89.10
56478;DHT22;42382;53.210;5.772;2024-02-23T00:22:46;5.80;88.50
56478;DHT22;42382;53.210;5.772;2024-02-23T00:25:12;5.80;88.00
56478;DHT22;42382;53.210;5.772;2024-02-23T00:27:37;5.70;88.30
56478;DHT22;42382;53.210;5.772;2024-02-23T00:30:05;5.60;87.70
56478;DHT22;42382;53.210;5.772;2024-02-23T00:32:31;5.50;88.70
56478;DHT22;42382;53.210;5.772;2024-02-23T00:34:57;5.50;89.10
56478;DHT22;42382;53.210;5.772;2024-02-23T00:37:23;5.50;89.50
56478;DHT22;42382;53.210;5.772;2024-02-23T00:39:51;5.50;89.70
56478;DHT22;42382;53.210;5.772;2024-02-23T00:42:17;5.50;89.70
56478;DHT22;42382;53.210;5.772;2024-02-23T00:44:43;5.50;89.80
56478;DHT22;42382;53.210;5.772;2024-02-23T00:47:08;5.60;90.00
56478;DHT22;42382;53.210;5.772;2024-02-23T00:49:34;5.50;90.20
56478;DHT22;42382;53.210;5.772;2024-02-23T00:52:00;5.60;90.40
56478;DHT22;42382;53.210;5.772;2024-02-23T00:54:26;5.60;90.50
56478;DHT22;42382;53.210;5.772;2024-02-23T00:56:51;5.70;90.60
56478;DHT22;42382;53.210;5.772;2024-02-23T00:59:17;5.70;90.80
56478;DHT22;42382;53.210;5.772;2024-02-23T01:01:43;5.80;90.80
56478;DHT22;42382;53.210;5.772;2024-02-23T01:04:08;5.80;90.90
56478;DHT22;42382;53.210;5.772;2024-02-23T01:06:34;5.80;90.80
56478;DHT22;42382;53.210;5.772;2024-02-23T01:09:00;5.90;90.70
56478;DHT22;42382;53.210;5.772;2024-02-23T01:11:25;5.90;90.40
56478;DHT22;42382;53.210;5.772;2024-02-23T01:13:51;6.00;90.20
56478;DHT22;42382;53.210;5.772;2024-02-23T01:16:16;6.00;89.60
56478;DHT22;42382;53.210;5.772;2024-02-23T01:18:42;6.00;89.00
56478;DHT22;42382;53.210;5.772;2024-02-23T01:21:08;6.00;87.40
56478;DHT22;42382;53.210;5.772;2024-02-23T01:23:33;6.10;88.20
56478;DHT22;42382;53.210;5.772;2024-02-23T01:25:59;6.10;88.10
56478;DHT22;42382;53.210;5.772;2024-02-23T01:28:25;6.10;88.40
56478;DHT22;42382;53.210;5.772;2024-02-23T01:30:51;6.10;87.70
56478;DHT22;42382;53.210;5.772;2024-02-23T01:33:16;6.10;87.20
56478;DHT22;42382;53.210;5.772;2024-02-23T01:35:42;6.10;87.10
56478;DHT22;42382;53.210;5.772;2024-02-23T01:38:10;6.10;87.50
56478;DHT22;42382;53.210;5.772;2024-02-23T01:40:36;6.20;87.70
56478;DHT22;42382;53.210;5.772;2024-02-23T01:43:05;6.20;87.70
56478;DHT22;42382;53.210;5.772;2024-02-23T01:45:31;6.10;86.70
56478;DHT22;42382;53.210;5.772;2024-02-23T01:47:58;6.20;87.10
56478;DHT22;42382;53.210;5.772;2024-02-23T01:50:25;6.20;87.30
56478;DHT22;42382;53.210;5.772;2024-02-23T01:52:51;6.10;87.50
56478;DHT22;42382;53.210;5.772;2024-02-23T01:55:20;6.10;87.40
56478;DHT22;42382;53.210;5.772;2024-02-23T01:57:46;6.10;87.10
56478;DHT22;42382;53.210;5.772;2024-02-23T02:00:16;6.10;86.90
56478;DHT22;42382;53.210;5.772;2024-02-23T02:02:43;6.10;86.90
56478;DHT22;42382;53.210;5.772;2024-02-23T02:05:08;6.10;87.10
56478;DHT22;42382;53.210;5.772;2024-02-23T02:07:34;6.10;86.90
56478;DHT22;42382;53.210;5.772;2024-02-23T02:09:59;6.00;86.70
56478;DHT22;42382;53.210;5.772;2024-02-23T02:12:29;6.10;86.70
56478;DHT22;42382;53.210;5.772;2024-02-23T02:14:54;6.10;87.00
56478;DHT22;42382;53.210;5.772;2024-02-23T02:17:21;6.00;87.20
56478;DHT22;42382;53.210;5.772;2024-02-23T02:19:50;6.00;86.90
56478;DHT22;42382;53.210;5.772;2024-02-23T02:22:15;5.90;87.20
56478;DHT22;42382;53.210;5.772;2024-02-23T02:24:41;5.90;87.40
56478;DHT22;42382;53.210;5.772;2024-02-23T02:27:09;5.90;87.40
56478;DHT22;42382;53.210;5.772;2024-02-23T02:29:38;5.90;87.30
56478;DHT22;42382;53.210;5.772;2024-02-23T02:32:04;5.80;86.60
56478;DHT22;42382;53.210;5.772;2024-02-23T02:34:30;5.80;87.00
56478;DHT22;42382;53.210;5.772;2024-02-23T02:36:55;5.90;87.00
56478;DHT22;42382;53.210;5.772;2024-02-23T02:39:21;5.80;87.00
56478;DHT22;42382;53.210;5.772;2024-02-23T02:41:48;5.80;87.00
56478;DHT22;42382;53.210;5.772;2024-02-23T02:44:14;5.80;87.00
56478;DHT22;42382;53.210;5.772;2024-02-23T02:46:40;5.80;86.60
56478;DHT22;42382;53.210;5.772;2024-02-23T02:49:06;5.70;86.60
56478;DHT22;42382;53.210;5.772;2024-02-23T02:51:32;5.70;85.90
56478;DHT22;42382;53.210;5.772;2024-02-23T02:53:57;5.70;85.30
56478;DHT22;42382;53.210;5.772;2024-02-23T02:56:23;5.70;85.80
56478;DHT22;42382;53.210;5.772;2024-02-23T02:58:49;5.70;86.10
56478;DHT22;42382;53.210;5.772;2024-02-23T03:01:14;5.70;86.20
56478;DHT22;42382;53.210;5.772;2024-02-23T03:03:40;5.60;86.30
56478;DHT22;42382;53.210;5.772;2024-02-23T03:06:06;5.70;86.40
56478;DHT22;42382;53.210;5.772;2024-02-23T03:08:32;5.70;86.60
56478;DHT22;42382;53.210;5.772;2024-02-23T03:10:57;5.60;86.30
56478;DHT22;42382;53.210;5.772;2024-02-23T03:13:23;5.60;86.50
56478;DHT22;42382;53.210;5.772;2024-02-23T03:15:49;5.60;86.50
56478;DHT22;42382;53.210;5.772;2024-02-23T03:18:14;5.60;86.60
56478;DHT22;42382;53.210;5.772;2024-02-23T03:20:41;5.70;86.90
56478;DHT22;42382;53.210;5.772;2024-02-23T03:23:07;5.70;87.00
56478;DHT22;42382;53.210;5.772;2024-02-23T03:25:32;5.60;87.00
56478;DHT22;42382;53.210;5.772;2024-02-23T03:27:59;5.60;87.10
56478;DHT22;42382;53.210;5.772;2024-02-23T03:30:24;5.50;87.10
56478;DHT22;42382;53.210;5.772;2024-02-23T03:32:50;5.40;87.60
56478;DHT22;42382;53.210;5.772;2024-02-23T03:35:16;5.50;87.90
56478;DHT22;42382;53.210;5.772;2024-02-23T03:37:41;5.50;88.10
56478;DHT22;42382;53.210;5.772;2024-02-23T03:40:07;5.60;87.00
56478;DHT22;42382;53.210;5.772;2024-02-23T03:42:33;5.50;87.10
56478;DHT22;42382;53.210;5.772;2024-02-23T03:44:59;5.40;86.90
56478;DHT22;42382;53.210;5.772;2024-02-23T03:47:24;5.40;86.90
56478;DHT22;42382;53.210;5.772;2024-02-23T03:49:50;5.30;87.50
56478;DHT22;42382;53.210;5.772;2024-02-23T03:52:16;5.30;87.90
56478;DHT22;42382;53.210;5.772;2024-02-23T03:54:41;5.30;88.20
56478;DHT22;42382;53.210;5.772;2024-02-23T03:57:07;5.40;88.40
56478;DHT22;42382;53.210;5.772;2024-02-23T03:59:32;5.40;88.50
56478;DHT22;42382;53.210;5.772;2024-02-23T04:01:58;5.30;88.50
56478;DHT22;42382;53.210;5.772;2024-02-23T04:04:24;5.40;88.70
56478;DHT22;42382;53.210;5.772;2024-02-23T04:06:49;5.40;88.70
56478;DHT22;42382;53.210;5.772;2024-02-23T04:09:15;5.40;88.70
56478;DHT22;42382;53.210;5.772;2024-02-23T04:11:40;5.40;88.90
56478;DHT22;42382;53.210;5.772;2024-02-23T04:14:06;5.40;89.00
56478;DHT22;42382;53.210;5.772;2024-02-23T04:16:31;5.40;89.00
56478;DHT22;42382;53.210;5.772;2024-02-23T04:18:57;5.40;88.70
56478;DHT22;42382;53.210;5.772;2024-02-23T04:21:23;5.40;88.80
56478;DHT22;42382;53.210;5.772;2024-02-23T04:23:48;5.40;88.70
56478;DHT22;42382;53.210;5.772;2024-02-23T04:26:14;5.40;88.80
56478;DHT22;42382;53.210;5.772;2024-02-23T04:28:40;5.40;88.90
56478;DHT22;42382;53.210;5.772;2024-02-23T04:31:07;5.40;89.10
56478;DHT22;42382;53.210;5.772;2024-02-23T04:33:34;5.30;88.90
56478;DHT22;42382;53.210;5.772;2024-02-23T04:36:01;5.40;88.90
56478;DHT22;42382;53.210;5.772;2024-02-23T04:38:26;5.30;89.00
56478;DHT22;42382;53.210;5.772;2024-02-23T04:40:52;5.30;88.90
56478;DHT22;42382;53.210;5.772;2024-02-23T04:43:17;5.30;88.90
56478;DHT22;42382;53.210;5.772;2024-02-23T04:45:43;5.30;89.00
56478;DHT22;42382;53.210;5.772;2024-02-23T04:48:09;5.30;89.00
56478;DHT22;42382;53.210;5.772;2024-02-23T04:50:35;5.20;89.20
56478;DHT22;42382;53.210;5.772;2024-02-23T04:53:00;5.20;89.30
56478;DHT22;42382;53.210;5.772;2024-02-23T04:55:26;5.20;89.20
56478;DHT22;42382;53.210;5.772;2024-02-23T04:57:51;5.10;89.10
56478;DHT22;42382;53.210;5.772;2024-02-23T05:00:17;5.10;89.00
56478;DHT22;42382;53.210;5.772;2024-02-23T05:02:43;5.10;89.20
56478;DHT22;42382;53.210;5.772;2024-02-23T05:05:08;5.00;89.10
56478;DHT22;42382;53.210;5.772;2024-02-23T05:07:34;5.10;89.00
56478;DHT22;42382;53.210;5.772;2024-02-23T05:10:00;5.10;89.10
56478;DHT22;42382;53.210;5.772;2024-02-23T05:12:25;5.10;89.10
56478;DHT22;42382;53.210;5.772;2024-02-23T05:14:51;5.10;89.00
56478;DHT22;42382;53.210;5.772;2024-02-23T05:17:23;5.10;89.00
56478;DHT22;42382;53.210;5.772;2024-02-23T05:19:48;5.10;89.30
56478;DHT22;42382;53.210;5.772;2024-02-23T05:22:14;5.10;89.20
56478;DHT22;42382;53.210;5.772;2024-02-23T05:24:39;5.10;89.00
56478;DHT22;42382;53.210;5.772;2024-02-23T05:27:05;5.10;89.10
56478;DHT22;42382;53.210;5.772;2024-02-23T05:29:31;5.10;89.30
56478;DHT22;42382;53.210;5.772;2024-02-23T05:31:57;5.10;89.30
56478;DHT22;42382;53.210;5.772;2024-02-23T05:34:22;5.10;89.30
56478;DHT22;42382;53.210;5.772;2024-02-23T05:36:48;5.00;89.40
56478;DHT22;42382;53.210;5.772;2024-02-23T05:39:16;5.00;89.50
56478;DHT22;42382;53.210;5.772;2024-02-23T05:41:45;5.00;89.50
56478;DHT22;42382;53.210;5.772;2024-02-23T05:44:11;4.90;89.40
56478;DHT22;42382;53.210;5.772;2024-02-23T05:46:38;4.90;89.60
56478;DHT22;42382;53.210;5.772;2024-02-23T05:49:04;4.90;89.70
56478;DHT22;42382;53.210;5.772;2024-02-23T05:51:30;4.90;89.70
56478;DHT22;42382;53.210;5.772;2024-02-23T05:53:56;4.90;89.70
56478;DHT22;42382;53.210;5.772;2024-02-23T05:56:22;4.90;89.60
56478;DHT22;42382;53.210;5.772;2024-02-23T05:58:49;5.00;89.50
56478;DHT22;42382;53.210;5.772;2024-02-23T06:01:14;5.00;89.50
56478;DHT22;42382;53.210;5.772;2024-02-23T06:03:40;4.90;89.70
56478;DHT22;42382;53.210;5.772;2024-02-23T06:06:09;4.90;89.80
56478;DHT22;42382;53.210;5.772;2024-02-23T06:08:38;4.90;89.90
56478;DHT22;42382;53.210;5.772;2024-02-23T06:11:03;4.90;90.00
56478;DHT22;42382;53.210;5.772;2024-02-23T06:13:30;4.90;89.90
56478;DHT22;42382;53.210;5.772;2024-02-23T06:15:55;4.90;90.10
56478;DHT22;42382;53.210;5.772;2024-02-23T06:18:21;4.90;90.20
56478;DHT22;42382;53.210;5.772;2024-02-23T06:20:47;4.90;90.20
56478;DHT22;42382;53.210;5.772;2024-02-23T06:23:13;4.90;90.40
56478;DHT22;42382;53.210;5.772;2024-02-23T06:25:39;4.90;90.50
56478;DHT22;42382;53.210;5.772;2024-02-23T06:28:05;4.90;90.60
56478;DHT22;42382;53.210;5.772;2024-02-23T06:30:31;4.90;90.70
56478;DHT22;42382;53.210;5.772;2024-02-23T06:32:57;5.00;90.90
56478;DHT22;42382;53.210;5.772;2024-02-23T06:35:23;5.00;90.90
56478;DHT22;42382;53.210;5.772;2024-02-23T06:37:48;5.00;91.10
56478;DHT22;42382;53.210;5.772;2024-02-23T06:40:14;5.10;91.30
56478;DHT22;42382;53.210;5.772;2024-02-23T06:42:40;5.20;91.40
56478;DHT22;42382;53.210;5.772;2024-02-23T06:45:06;5.20;91.50
56478;DHT22;42382;53.210;5.772;2024-02-23T06:47:33;5.30;91.60
56478;DHT22;42382;53.210;5.772;2024-02-23T06:49:59;5.40;91.60
56478;DHT22;42382;53.210;5.772;2024-02-23T06:52:31;5.40;91.50
56478;DHT22;42382;53.210;5.772;2024-02-23T06:54:57;5.40;91.70
56478;DHT22;42382;53.210;5.772;2024-02-23T06:57:22;5.40;91.40
56478;DHT22;42382;53.210;5.772;2024-02-23T06:59:51;5.40;91.60
56478;DHT22;42382;53.210;5.772;2024-02-23T07:02:16;5.30;91.30
56478;DHT22;42382;53.210;5.772;2024-02-23T07:04:45;5.20;91.20
56478;DHT22;42382;53.210;5.772;2024-02-23T07:07:11;5.30;91.50
56478;DHT22;42382;53.210;5.772;2024-02-23T07:09:37;5.20;91.40
56478;DHT22;42382;53.210;5.772;2024-02-23T07:12:03;5.20;91.60
56478;DHT22;42382;53.210;5.772;2024-02-23T07:14:28;5.20;91.50
56478;DHT22;42382;53.210;5.772;2024-02-23T07:16:54;5.20;91.60
56478;DHT22;42382;53.210;5.772;2024-02-23T07:19:19;5.20;91.60
56478;DHT22;42382;53.210;5.772;2024-02-23T07:21:46;5.20;91.50
56478;DHT22;42382;53.210;5.772;2024-02-23T07:24:12;5.20;91.50
56478;DHT22;42382;53.210;5.772;2024-02-23T07:26:41;5.20;91.50
56478;DHT22;42382;53.210;5.772;2024-02-23T07:29:07;5.20;91.60
56478;DHT22;42382;53.210;5.772;2024-02-23T07:31:32;5.20;91.70
56478;DHT22;42382;53.210;5.772;2024-02-23T07:33:58;5.20;91.50
56478;DHT22;42382;53.210;5.772;2024-02-23T07:36:24;5.20;91.60
56478;DHT22;42382;53.210;5.772;2024-02-23T07:38:49;5.20;91.60
56478;DHT22;42382;53.210;5.772;2024-02-23T07:41:18;5.20;91.50
56478;DHT22;42382;53.210;5.772;2024-02-23T07:43:44;5.20;91.50
56478;DHT22;42382;53.210;5.772;2024-02-23T07:46:09;5.30;91.50
56478;DHT22;42382;53.210;5.772;2024-02-23T07:48:36;5.30;91.40
56478;DHT22;42382;53.210;5.772;2024-02-23T07:51:02;5.40;91.50
56478;DHT22;42382;53.210;5.772;2024-02-23T07:53:28;5.40;91.70
56478;DHT22;42382;53.210;5.772;2024-02-23T07:55:54;5.50;91.70
56478;DHT22;42382;53.210;5.772;2024-02-23T07:58:19;5.60;91.40
56478;DHT22;42382;53.210;5.772;2024-02-23T08:00:46;5.60;91.40
56478;DHT22;42382;53.210;5.772;2024-02-23T08:03:12;5.70;91.30
56478;DHT22;42382;53.210;5.772;2024-02-23T08:05:37;5.80;91.30
56478;DHT22;42382;53.210;5.772;2024-02-23T08:08:03;5.90;91.30
56478;DHT22;42382;53.210;5.772;2024-02-23T08:10:29;5.90;91.30
56478;DHT22;42382;53.210;5.772;2024-02-23T08:12:54;6.00;91.20
56478;DHT22;42382;53.210;5.772;2024-02-23T08:15:20;6.10;91.20
56478;DHT22;42382;53.210;5.772;2024-02-23T08:17:45;6.00;90.70
56478;DHT22;42382;53.210;5.772;2024-02-23T08:20:11;6.10;90.80
56478;DHT22;42382;53.210;5.772;2024-02-23T08:22:37;6.10;90.70
56478;DHT22;42382;53.210;5.772;2024-02-23T08:25:02;6.10;90.20
56478;DHT22;42382;53.210;5.772;2024-02-23T08:27:28;6.20;90.70
56478;DHT22;42382;53.210;5.772;2024-02-23T08:29:54;6.20;90.20
56478;DHT22;42382;53.210;5.772;2024-02-23T08:32:19;6.20;90.40
56478;DHT22;42382;53.210;5.772;2024-02-23T08:34:45;6.30;90.60
56478;DHT22;42382;53.210;5.772;2024-02-23T08:37:12;6.30;90.50
56478;DHT22;42382;53.210;5.772;2024-02-23T08:39:38;6.30;90.50
56478;DHT22;42382;53.210;5.772;2024-02-23T08:42:03;6.30;90.40
56478;DHT22;42382;53.210;5.772;2024-02-23T08:44:29;6.30;90.30
56478;DHT22;42382;53.210;5.772;2024-02-23T08:46:58;6.30;90.50
56478;DHT22;42382;53.210;5.772;2024-02-23T08:49:23;6.30;90.00
56478;DHT22;42382;53.210;5.772;2024-02-23T08:51:49;6.30;90.40
56478;DHT22;42382;53.210;5.772;2024-02-23T08:54:14;6.30;90.10
56478;DHT22;42382;53.210;5.772;2024-02-23T08:56:40;6.20;90.20
56478;DHT22;42382;53.210;5.772;2024-02-23T08:59:08;6.20;90.30
56478;DHT22;42382;53.210;5.772;2024-02-23T09:01:34;6.20;90.20
56478;DHT22;42382;53.210;5.772;2024-02-23T09:04:00;6.20;90.30
56478;DHT22;42382;53.210;5.772;2024-02-23T09:06:26;6.30;89.70
56478;DHT22;42382;53.210;5.772;2024-02-23T09:08:51;6.20;89.80
56478;DHT22;42382;53.210;5.772;2024-02-23T09:11:17;6.20;90.00
56478;DHT22;42382;53.210;5.772;2024-02-23T09:13:45;6.20;90.10
56478;DHT22;42382;53.210;5.772;2024-02-23T09:16:11;6.10;89.80
56478;DHT22;42382;53.210;5.772;2024-02-23T09:18:36;6.20;89.60
56478;DHT22;42382;53.210;5.772;2024-02-23T09:21:02;6.10;89.80
56478;DHT22;42382;53.210;5.772;2024-02-23T09:23:28;6.20;89.90
56478;DHT22;42382;53.210;5.772;2024-02-23T09:25:53;6.10;89.70
56478;DHT22;42382;53.210;5.772;2024-02-23T09:28:21;6.10;90.20
56478;DHT22;42382;53.210;5.772;2024-02-23T09:30:50;6.10;90.00
56478;DHT22;42382;53.210;5.772;2024-02-23T09:33:16;6.10;90.00
56478;DHT22;42382;53.210;5.772;2024-02-23T09:35:41;6.20;89.90
56478;DHT22;42382;53.210;5.772;2024-02-23T09:38:07;6.10;89.80
56478;DHT22;42382;53.210;5.772;2024-02-23T09:40:32;6.20;90.00
56478;DHT22;42382;53.210;5.772;2024-02-23T09:42:58;6.20;90.00
56478;DHT22;42382;53.210;5.772;2024-02-23T09:45:27;6.20;89.80
56478;DHT22;42382;53.210;5.772;2024-02-23T09:47:57;6.20;89.90
56478;DHT22;42382;53.210;5.772;2024-02-23T09:50:24;6.30;90.00
56478;DHT22;42382;53.210;5.772;2024-02-23T09:52:50;6.10;89.60
56478;DHT22;42382;53.210;5.772;2024-02-23T09:55:20;6.00;89.80
56478;DHT22;42382;53.210;5.772;2024-02-23T09:57:48;5.80;89.70
56478;DHT22;42382;53.210;5.772;2024-02-23T10:00:16;5.60;90.50
56478;DHT22;42382;53.210;5.772;2024-02-23T10:02:45;5.50;90.90
56478;DHT22;42382;53.210;5.772;2024-02-23T10:05:11;5.50;91.60
56478;DHT22;42382;53.210;5.772;2024-02-23T10:07:40;5.40;91.80
56478;DHT22;42382;53.210;5.772;2024-02-23T10:10:09;5.50;92.20
56478;DHT22;42382;53.210;5.772;2024-02-23T10:12:36;5.40;92.30
56478;DHT22;42382;53.210;5.772;2024-02-23T10:15:05;5.50;92.40
56478;DHT22;42382;53.210;5.772;2024-02-23T10:17:31;5.50;92.50
56478;DHT22;42382;53.210;5.772;2024-02-23T10:19:58;5.50;92.80
56478;DHT22;42382;53.210;5.772;2024-02-23T10:22:24;5.60;93.00
56478;DHT22;42382;53.210;5.772;2024-02-23T10:24:51;5.70;92.90
56478;DHT22;42382;53.210;5.772;2024-02-23T10:27:21;5.70;92.90
56478;DHT22;42382;53.210;5.772;2024-02-23T10:29:50;5.80;93.10
56478;DHT22;42382;53.210;5.772;2024-02-23T10:32:18;5.70;92.90
56478;DHT22;42382;53.210;5.772;2024-02-23T10:34:47;5.80;93.10
56478;DHT22;42382;53.210;5.772;2024-02-23T10:37:14;5.80;93.00
56478;DHT22;42382;53.210;5.772;2024-02-23T10:39:40;5.80;92.90
56478;DHT22;42382;53.210;5.772;2024-02-23T10:42:09;5.90;93.00
56478;DHT22;42382;53.210;5.772;2024-02-23T10:44:39;5.90;92.80
56478;DHT22;42382;53.210;5.772;2024-02-23T10:47:07;5.80;92.90
56478;DHT22;42382;53.210;5.772;2024-02-23T10:49:33;5.80;92.70
56478;DHT22;42382;53.210;5.772;2024-02-23T10:51:58;5.80;92.60
56478;DHT22;42382;53.210;5.772;2024-02-23T10:54:25;5.90;92.70
56478;DHT22;42382;53.210;5.772;2024-02-23T10:56:52;5.90;92.70
56478;DHT22;42382;53.210;5.772;2024-02-23T10:59:19;6.00;92.80
56478;DHT22;42382;53.210;5.772;2024-02-23T11:01:48;6.10;92.80
56478;DHT22;42382;53.210;5.772;2024-02-23T11:04:20;6.20;92.80
56478;DHT22;42382;53.210;5.772;2024-02-23T11:06:54;6.20;92.60
56478;DHT22;42382;53.210;5.772;2024-02-23T11:09:25;6.30;92.70
56478;DHT22;42382;53.210;5.772;2024-02-23T11:11:55;6.50;92.50
56478;DHT22;42382;53.210;5.772;2024-02-23T11:14:34;6.60;92.40
56478;DHT22;42382;53.210;5.772;2024-02-23T11:17:01;6.70;92.20
56478;DHT22;42382;53.210;5.772;2024-02-23T11:19:39;6.80;91.70
56478;DHT22;42382;53.210;5.772;2024-02-23T11:22:09;6.80;91.60
56478;DHT22;42382;53.210;5.772;2024-02-23T11:24:34;6.90;91.50
56478;DHT22;42382;53.210;5.772;2024-02-23T11:27:01;7.00;91.30
56478;DHT22;42382;53.210;5.772;2024-02-23T11:29:34;7.00;91.00
56478;DHT22;42382;53.210;5.772;2024-02-23T11:32:01;7.00;91.10
56478;DHT22;42382;53.210;5.772;2024-02-23T11:34:29;7.10;90.80
56478;DHT22;42382;53.210;5.772;2024-02-23T11:36:56;7.10;90.60
56478;DHT22;42382;53.210;5.772;2024-02-23T11:39:23;7.10;90.40
56478;DHT22;42382;53.210;5.772;2024-02-23T11:41:49;7.20;90.60
56478;DHT22;42382;53.210;5.772;2024-02-23T11:44:15;7.20;90.40
56478;DHT22;42382;53.210;5.772;2024-02-23T11:46:46;7.30;90.10
56478;DHT22;42382;53.210;5.772;2024-02-23T11:49:13;7.40;90.00
56478;DHT22;42382;53.210;5.772;2024-02-23T11:51:39;7.40;89.70
56478;DHT22;42382;53.210;5.772;2024-02-23T11:54:06;7.40;89.60
56478;DHT22;42382;53.210;5.772;2024-02-23T11:56:31;7.40;89.30
56478;DHT22;42382;53.210;5.772;2024-02-23T11:58:57;7.40;89.10
56478;DHT22;42382;53.210;5.772;2024-02-23T12:01:23;7.30;89.30
56478;DHT22;42382;53.210;5.772;2024-02-23T12:03:48;7.20;89.50
56478;DHT22;42382;53.210;5.772;2024-02-23T12:06:15;7.10;89.60
56478;DHT22;42382;53.210;5.772;2024-02-23T12:08:44;7.10;90.00
56478;DHT22;42382;53.210;5.772;2024-02-23T12:11:11;7.10;90.30
56478;DHT22;42382;53.210;5.772;2024-02-23T12:13:39;7.20;90.30
56478;DHT22;42382;53.210;5.772;2024-02-23T12:16:07;7.10;90.30
56478;DHT22;42382;53.210;5.772;2024-02-23T12:18:33;7.10;90.50
56478;DHT22;42382;53.210;5.772;2024-02-23T12:21:06;7.10;90.70
56478;DHT22;42382;53.210;5.772;2024-02-23T12:23:58;7.10;91.00
56478;DHT22;42382;53.210;5.772;2024-02-23T12:26:24;7.30;91.40
56478;DHT22;42382;53.210;5.772;2024-02-23T12:28:49;7.40;91.30
56478;DHT22;42382;53.210;5.772;2024-02-23T12:31:15;7.40;91.30
56478;DHT22;42382;53.210;5.772;2024-02-23T12:33:41;7.50;91.00
56478;DHT22;42382;53.210;5.772;2024-02-23T12:36:07;7.40;90.50
56478;DHT22;42382;53.210;5.772;2024-02-23T12:38:33;7.50;90.50
56478;DHT22;42382;53.210;5.772;2024-02-23T12:41:00;7.50;89.90
56478;DHT22;42382;53.210;5.772;2024-02-23T12:43:26;7.40;90.20
56478;DHT22;42382;53.210;5.772;2024-02-23T12:45:55;7.40;90.00
56478;DHT22;42382;53.210;5.772;2024-02-23T12:48:21;7.50;90.10
56478;DHT22;42382;53.210;5.772;2024-02-23T12:50:47;7.60;90.20
56478;DHT22;42382;53.210;5.772;2024-02-23T12:56:07;7.70;90.10
56478;DHT22;42382;53.210;5.772;2024-02-23T12:58:37;7.70;90.00
56478;DHT22;42382;53.210;5.772;2024-02-23T13:01:03;7.80;90.10
56478;DHT22;42382;53.210;5.772;2024-02-23T13:03:30;7.80;89.80
56478;DHT22;42382;53.210;5.772;2024-02-23T13:05:56;7.80;89.90
56478;DHT22;42382;53.210;5.772;2024-02-23T13:08:23;7.80;89.50
56478;DHT22;42382;53.210;5.772;2024-02-23T13:10:49;7.80;88.80
56478;DHT22;42382;53.210;5.772;2024-02-23T13:13:15;7.70;88.90
56478;DHT22;42382;53.210;5.772;2024-02-23T13:15:45;7.70;88.70
56478;DHT22;42382;53.210;5.772;2024-02-23T13:18:11;7.70;88.90
56478;DHT22;42382;53.210;5.772;2024-02-23T13:20:37;7.70;89.10
56478;DHT22;42382;53.210;5.772;2024-02-23T13:23:04;7.70;88.80
56478;DHT22;42382;53.210;5.772;2024-02-23T13:25:29;7.60;89.20
56478;DHT22;42382;53.210;5.772;2024-02-23T13:27:55;7.60;89.30
56478;DHT22;42382;53.210;5.772;2024-02-23T13:30:21;7.60;88.10
56478;DHT22;42382;53.210;5.772;2024-02-23T13:32:46;7.60;88.60
56478;DHT22;42382;53.210;5.772;2024-02-23T13:35:12;7.60;89.00
56478;DHT22;42382;53.210;5.772;2024-02-23T13:37:40;7.50;89.00
56478;DHT22;42382;53.210;5.772;2024-02-23T13:40:06;7.60;88.40
56478;DHT22;42382;53.210;5.772;2024-02-23T13:42:34;7.70;88.90
56478;DHT22;42382;53.210;5.772;2024-02-23T13:45:00;7.70;88.70
56478;DHT22;42382;53.210;5.772;2024-02-23T13:47:25;7.70;88.50
56478;DHT22;42382;53.210;5.772;2024-02-23T13:49:51;7.70;88.40
56478;DHT22;42382;53.210;5.772;2024-02-23T13:52:16;7.70;88.70
56478;DHT22;42382;53.210;5.772;2024-02-23T13:54:43;7.80;88.80
56478;DHT22;42382;53.210;5.772;2024-02-23T13:57:08;7.80;88.30
56478;DHT22;42382;53.210;5.772;2024-02-23T13:59:34;7.80;88.50
56478;DHT22;42382;53.210;5.772;2024-02-23T14:02:00;7.90;88.60
56478;DHT22;42382;53.210;5.772;2024-02-23T14:04:25;7.90;88.40
56478;DHT22;42382;53.210;5.772;2024-02-23T14:06:51;7.90;88.80
56478;DHT22;42382;53.210;5.772;2024-02-23T14:09:17;8.00;88.70
56478;DHT22;42382;53.210;5.772;2024-02-23T14:11:43;7.90;87.80
56478;DHT22;42382;53.210;5.772;2024-02-23T14:14:10;8.00;88.50
56478;DHT22;42382;53.210;5.772;2024-02-23T14:16:36;8.00;88.40
56478;DHT22;42382;53.210;5.772;2024-02-23T14:19:02;8.10;87.50
56478;DHT22;42382;53.210;5.772;2024-02-23T14:21:27;8.10;88.20
56478;DHT22;42382;53.210;5.772;2024-02-23T14:23:53;8.10;87.50
56478;DHT22;42382;53.210;5.772;2024-02-23T14:26:19;8.10;86.60
56478;DHT22;42382;53.210;5.772;2024-02-23T14:28:44;8.10;86.90
56478;DHT22;42382;53.210;5.772;2024-02-23T14:31:10;8.10;86.40
56478;DHT22;42382;53.210;5.772;2024-02-23T14:33:35;8.10;85.80
56478;DHT22;42382;53.210;5.772;2024-02-23T14:36:01;8.00;85.90
56478;DHT22;42382;53.210;5.772;2024-02-23T14:38:26;8.10;85.50
56478;DHT22;42382;53.210;5.772;2024-02-23T14:40:52;8.10;84.90
56478;DHT22;42382;53.210;5.772;2024-02-23T14:43:18;8.10;85.20
56478;DHT22;42382;53.210;5.772;2024-02-23T14:45:44;8.10;84.70
56478;DHT22;42382;53.210;5.772;2024-02-23T14:48:12;8.20;85.30
56478;DHT22;42382;53.210;5.772;2024-02-23T14:50:38;8.20;85.80
56478;DHT22;42382;53.210;5.772;2024-02-23T14:53:03;8.20;85.50
56478;DHT22;42382;53.210;5.772;2024-02-23T14:55:29;8.30;86.20
56478;DHT22;42382;53.210;5.772;2024-02-23T14:57:54;8.30;86.40
56478;DHT22;42382;53.210;5.772;2024-02-23T15:00:21;8.40;86.50
56478;DHT22;42382;53.210;5.772;2024-02-23T15:02:47;8.40;86.40
56478;DHT22;42382;53.210;5.772;2024-02-23T15:05:13;8.50;85.70
56478;DHT22;42382;53.210;5.772;2024-02-23T15:07:38;8.40;85.70
56478;DHT22;42382;53.210;5.772;2024-02-23T15:10:04;8.50;85.80
56478;DHT22;42382;53.210;5.772;2024-02-23T15:12:37;8.50;85.90
56478;DHT22;42382;53.210;5.772;2024-02-23T15:15:03;8.40;85.60
56478;DHT22;42382;53.210;5.772;2024-02-23T15:17:30;8.40;86.20
56478;DHT22;42382;53.210;5.772;2024-02-23T15:19:55;8.30;86.10
56478;DHT22;42382;53.210;5.772;2024-02-23T15:22:21;8.30;86.40
56478;DHT22;42382;53.210;5.772;2024-02-23T15:24:47;8.10;86.40
56478;DHT22;42382;53.210;5.772;2024-02-23T15:27:15;8.10;86.90
56478;DHT22;42382;53.210;5.772;2024-02-23T15:29:42;8.00;87.30
56478;DHT22;42382;53.210;5.772;2024-02-23T15:32:08;8.00;87.40
56478;DHT22;42382;53.210;5.772;2024-02-23T15:34:34;8.10;87.20
56478;DHT22;42382;53.210;5.772;2024-02-23T15:37:00;8.00;87.40
56478;DHT22;42382;53.210;5.772;2024-02-23T15:39:25;8.00;87.20
56478;DHT22;42382;53.210;5.772;2024-02-23T15:41:51;8.10;87.60